Babson Park, Massachusetts
Current Conditions -  °F | °C
As of 6:29 PM on Wednesday 22 Oct 2014 (Local Time) from KOWD Reporting Station
Light Rain Light Rain  
Wind Chill: 11°   Ceiling: 800
Heat Index: 11°   Visibility: 3mi
Dew Point: 10°   Wind: 14mph
Humidity: 93%   Direction: 20°NNE
Pressure: 29.85"   Gusts: 33mph
Location:  42.3°N, 71.26°W
Report Text: KOWD 222229Z 02012G29KT 3SM -RA BR BKN008 OVC013 11/10 A2985 RMK AO2 PK WND 03029/2222 CIG 006V010 P0003 T01110100
Loading
Personal Weather Stations






























Interactive Weather Map
Tropical Storm Tracking
New forecast layout! Learn more

10-Day Weather Forecast

Advertisements
Track Severe Weather on mobile